Latest Weather Observations for Bourke

IDN60801

Issued at 7:12 pm EDT Sunday 15 December 2019 (issued every 10 minutes, with the page automatically refreshed every 10 minutes)

About weather observations | Map of weather stations | Latest weather observations for NSW | Other Formats
Station Details ID: 048245 Name: BOURKE AIRPORT AWS Lat: -30.04 Lon: 145.95 Height: 107.3 m
Data from the previous 72 hours. | See also: Recent months at Bourke
Date/Time
EDT
Temp
°C
App
Temp
°C
Dew
Point
°C
Rel
Hum
%
Delta-T
°C
Wind Press
QNH
hPa
Press
MSL
hPa
Rain since
9am
mm
Dir  Spd
km/h
Gust
km/h
Spd
kts
Gust
kts
15/07:00pm 36.8 31.5 2.8 12 17.9 WSW 20 32 11 17 1007.7 1007.1 0.0
15/06:30pm 37.7 32.5 2.2 11 18.5 WSW 19 35 10 19 1007.3 1006.7 0.0
15/06:00pm 37.1 31.0 3.0 12 18.0 SSW 24 35 13 19 1007.5 1006.9 0.0
15/05:30pm 37.3 32.0 1.9 11 18.3 SW 19 30 10 16 1007.6 1007.0 0.0
15/05:00pm 37.9 32.9 3.6 12 18.4 SW 19 28 10 15 1007.5 1006.9 0.0
15/04:30pm 38.1 33.5 3.8 12 18.4 WSW 17 33 9 18 1007.6 1007.0 0.0
15/04:00pm 37.7 32.3 2.2 11 18.6 SW 20 43 11 23 1008.0 1007.4 0.0
15/03:30pm 37.1 32.8 3.0 12 18.0 SW 15 26 8 14 1008.2 1007.6 0.0
15/03:00pm 36.7 32.3 2.7 12 17.8 W 15 28 8 15 1008.5 1007.9 0.0
15/02:30pm 35.9 31.2 3.2 13 17.2 WNW 17 28 9 15 1008.7 1008.1 0.0
15/02:00pm 35.7 31.0 3.0 13 17.1 WSW 17 32 9 17 1009.2 1008.6 0.0
15/01:30pm 36.1 32.9 3.3 13 17.3 NW 9 22 5 12 1009.6 1008.9 0.0
15/01:00pm 36.0 33.4 4.3 14 17.0 W 7 17 4 9 1010.1 1009.4 0.0
15/12:30pm 34.7 31.7 4.3 15 16.1 SE 9 37 5 20 1010.6 1009.9 0.0
15/12:00pm 33.3 30.5 3.2 15 15.6 NW 7 15 4 8 1011.0 1010.3 0.0
15/11:30am 33.9 31.0 4.6 16 15.6 SSE 9 19 5 10 1011.5 1010.8 0.0
15/11:00am 32.3 29.9 4.2 17 14.7 NNE 6 9 3 5 1011.6 1010.9 0.0
15/10:30am 31.4 28.0 4.2 18 14.1 S 11 19 6 10 1011.8 1011.1 0.0
15/10:00am 31.1 27.7 4.0 18 14.0 ESE 11 20 6 11 1012.2 1011.5 0.0
15/09:30am 30.0 25.7 3.1 18 13.6 ESE 15 20 8 11 1012.1 1011.4 0.0
15/09:00am 29.5 25.8 4.2 20 13.0 ESE 13 19 7 10 1012.1 1011.4 0.0
15/08:30am 28.2 23.6 3.8 21 12.4 SE 17 20 9 11 1012.0 1011.3 0.0
15/08:00am 26.2 22.5 4.6 25 11.0 SE 13 20 7 11 1011.8 1011.1 0.0
15/07:30am 25.3 22.6 5.5 28 10.1 SSE 9 13 5 7 1011.8 1011.1 0.0
15/07:00am 23.7 20.7 6.0 32 9.1 S 11 13 6 7 1011.6 1010.9 0.0
15/06:30am 22.7 19.6 5.6 33 8.6 SSE 11 13 6 7 1011.1 1010.4 0.0
15/06:00am 22.6 19.5 5.5 33 8.6 S 11 13 6 7 1010.7 1010.0 0.0
15/05:30am 22.8 19.6 5.3 32 8.8 SSE 11 13 6 7 1010.5 1009.8 0.0
15/05:00am 22.7 19.9 5.2 32 8.8 SSE 9 11 5 6 1010.2 1009.5 0.0
15/04:30am 23.2 20.4 5.2 31 9.1 SSE 9 13 5 7 1010.0 1009.3 0.0
15/04:00am 23.5 20.6 4.9 30 9.3 SSE 9 11 5 6 1010.2 1009.5 0.0
15/03:30am 24.5 21.2 4.8 28 9.9 SSE 11 17 6 9 1010.1 1009.4 0.0
15/03:00am 25.5 21.8 4.6 26 10.6 S 13 19 7 10 1010.2 1009.5 0.0
15/02:30am 26.3 21.9 4.7 25 11.0 S 17 24 9 13 1010.1 1009.4 0.0
15/02:00am 26.8 22.0 4.6 24 11.3 S 19 24 10 13 1010.2 1009.5 0.0
15/01:30am 27.4 22.8 3.8 22 11.9 S 17 22 9 12 1010.2 1009.5 0.0
15/01:00am 27.7 23.0 3.4 21 12.2 S 17 20 9 11 1010.1 1009.4 0.0
15/12:30am 27.9 23.2 2.9 20 12.4 S 17 26 9 14 1010.3 1009.6 0.0
15/12:00am 28.3 23.9 2.5 19 12.8 SSW 15 19 8 10 1010.4 1009.7 0.0
 
Date/Time
EDT
Temp
°C
App
Temp
°C
Dew
Point
°C
Rel
Hum
%
Delta-T
°C
Wind Press
QNH
hPa
Press
MSL
hPa
Rain since
9am
mm
Dir  Spd
km/h
Gust
km/h
Spd
kts
Gust
kts
14/11:30pm 28.3 24.2 2.5 19 12.8 SSW 13 15 7 8 1010.4 1009.7 0.0
14/11:00pm 27.6 23.8 1.9 19 12.6 SSW 11 13 6 7 1010.4 1009.7 0.0
14/10:30pm 26.4 23.2 0.9 19 12.1 SSW 7 9 4 5 1010.3 1009.6 0.0
14/10:00pm 27.6 24.5 1.2 18 12.7 SW 7 9 4 5 1010.1 1009.4 0.0
14/09:30pm 28.5 25.2 0.3 16 13.5 SSW 7 9 4 5 1009.9 1009.2 0.0
14/09:00pm 29.7 26.3 -0.6 14 14.4 SSW 7 9 4 5 1009.7 1009.0 0.0
14/08:30pm 31.7 27.6 -0.1 13 15.4 S 11 15 6 8 1009.3 1008.7 0.0
14/08:00pm 32.9 28.2 0.9 13 15.9 S 15 20 8 11 1009.1 1008.5 0.0
14/07:30pm 34.1 29.9 1.8 13 16.4 S 13 17 7 9 1009.0 1008.4 0.0
14/07:00pm 34.7 29.3 2.3 13 16.7 SW 20 30 11 16 1008.7 1008.1 0.0
14/06:30pm 34.8 30.3 2.3 13 16.7 S 15 24 8 13 1008.5 1007.9 0.0
14/06:00pm 34.8 29.4 2.3 13 16.7 SSW 20 32 11 17 1008.6 1008.0 0.0
14/05:30pm 35.3 30.5 2.7 13 16.9 SW 17 30 9 16 1008.7 1008.1 0.0
14/05:00pm 34.9 30.4 2.4 13 16.8 SSW 15 24 8 13 1008.8 1008.2 0.0
14/04:30pm 34.8 31.1 2.3 13 16.7 SW 11 19 6 10 1009.2 1008.6 0.0
14/04:00pm 35.1 30.7 2.6 13 16.8 SW 15 26 8 14 1009.8 1009.1 0.0
14/03:30pm 33.9 30.1 1.6 13 16.3 SSW 11 20 6 11 1010.1 1009.4 0.0
14/03:00pm 33.3 29.4 1.2 13 16.1 SSW 11 24 6 13 1010.6 1009.9 0.0
14/02:30pm 32.7 28.5 1.7 14 15.6 WSW 13 20 7 11 1011.2 1010.5 0.0
14/02:00pm 32.6 27.1 1.7 14 15.5 SW 20 32 11 17 1011.6 1010.9 0.0
14/01:30pm 32.2 27.6 1.3 14 15.4 WSW 15 26 8 14 1012.1 1011.4 0.0
14/01:00pm 30.8 26.0 0.2 14 14.8 SSW 15 30 8 16 1012.6 1011.9 0.0
14/12:30pm 30.8 26.1 1.2 15 14.6 SSW 15 20 8 11 1012.8 1012.1 0.0
14/12:00pm 30.6 26.5 0.1 14 14.7 SSW 11 19 6 10 1013.1 1012.4 0.0
14/11:30am 29.8 24.5 -0.5 14 14.4 SSE 17 24 9 13 1013.4 1012.7 0.0
14/11:00am 29.3 24.0 -0.9 14 14.2 SSE 17 26 9 14 1013.6 1012.9 0.0
14/10:30am 28.6 23.3 -0.5 15 13.7 S 17 26 9 14 1013.6 1012.9 0.0
14/10:00am 27.2 21.4 -1.7 15 13.2 SSE 19 28 10 15 1013.7 1013.0 0.0
14/09:30am 26.9 20.9 -1.9 15 13.1 SSE 20 28 11 15 1013.8 1013.1 0.0
14/09:00am 26.2 20.2 -1.6 16 12.6 SSE 20 28 11 15 1013.8 1013.1 0.0
14/08:30am 24.5 18.7 -1.3 18 11.6 S 19 28 10 15 1013.8 1013.1 0.0
14/08:00am 23.1 17.3 -1.8 19 11.0 S 19 24 10 13 1013.7 1013.0 0.0
14/07:30am 21.6 17.7 -1.6 21 10.1 SSW 9 13 5 7 1013.4 1012.7 0.0
14/07:00am 20.4 16.8 -2.0 22 9.6 SSW 7 11 4 6 1013.2 1012.5 0.0
14/06:30am 17.9 14.4 -2.9 24 8.5 SSW 6 7 3 4 1012.9 1012.2 0.0
14/06:00am 18.9 15.2 -2.7 23 9.0 SSW 7 9 4 5 1012.6 1011.9 0.0
14/05:30am 20.0 15.9 -3.0 21 9.6 SSW 9 11 5 6 1012.4 1011.7 0.0
14/05:00am 21.1 16.7 -2.7 20 10.1 S 11 17 6 9 1012.1 1011.4 0.0
14/04:30am 21.8 17.0 -2.8 19 10.5 S 13 17 7 9 1012.1 1011.4 0.0
14/04:00am 21.6 16.4 -3.0 19 10.4 SSW 15 17 8 9 1012.0 1011.3 0.0
14/03:30am 21.9 16.6 -3.5 18 10.7 SSW 15 19 8 10 1012.1 1011.4 0.0
14/03:00am 22.5 17.2 -3.7 17 11.1 SSW 15 19 8 10 1012.2 1011.5 0.0
14/02:30am 23.0 17.4 -3.3 17 11.2 SSW 17 20 9 11 1012.3 1011.6 0.0
14/02:00am 23.7 17.9 -4.4 15 11.8 S 17 20 9 11 1012.3 1011.6 0.0
14/01:30am 23.9 18.1 -4.3 15 11.9 SSW 17 20 9 11 1012.5 1011.8 0.0
14/01:00am 24.7 18.4 -3.6 15 12.2 S 20 30 11 16 1012.6 1011.9 0.0
14/12:30am 25.1 19.1 -3.3 15 12.4 SSW 19 24 10 13 1012.8 1012.1 0.0
14/12:00am 25.3 19.8 -2.3 16 12.3 SSW 17 20 9 11 1012.9 1012.2 0.0
 
Date/Time
EDT
Temp
°C
App
Temp
°C
Dew
Point
°C
Rel
Hum
%
Delta-T
°C
Wind Press
QNH
hPa
Press
MSL
hPa
Rain since
9am
mm
Dir  Spd
km/h
Gust
km/h
Spd
kts
Gust
kts
13/11:30pm 26.2 20.3 -2.4 15 12.8 SSW 19 26 10 14 1012.8 1012.1 0.0
13/11:00pm 26.5 21.1 -1.3 16 12.7 SSW 17 20 9 11 1012.6 1011.9 0.0
13/10:30pm 27.0 21.5 -1.8 15 13.1 SSW 17 20 9 11 1012.3 1011.6 0.0
13/10:00pm 27.6 21.7 -2.3 14 13.5 SSW 19 24 10 13 1012.1 1011.4 0.0
13/09:30pm 28.3 22.7 -2.7 13 14.0 SSW 17 22 9 12 1011.8 1011.1 0.0
13/09:00pm 29.0 23.0 -3.2 12 14.5 SSW 19 24 10 13 1011.3 1010.6 0.0
13/08:30pm 29.9 24.3 -2.6 12 14.9 SSW 17 22 9 12 1010.9 1010.2 0.0
13/08:00pm 30.8 25.2 -3.0 11 15.5 S 17 24 9 13 1010.6 1009.9 0.0
13/07:30pm 32.2 26.0 -3.2 10 16.3 S 20 28 11 15 1010.4 1009.7 0.0
13/07:00pm 32.8 26.5 -4.2 9 16.9 SSW 20 28 11 15 1010.0 1009.3 0.0
13/06:30pm 33.2 27.5 -3.9 9 17.0 SSW 17 22 9 12 1009.8 1009.1 0.0
13/06:00pm 33.3 26.6 -3.8 9 17.1 SSW 22 30 12 16 1009.8 1009.1 0.0
13/05:30pm 33.1 26.8 -5.5 8 17.3 SW 19 30 10 16 1009.9 1009.2 0.0
13/05:00pm 33.6 28.1 -5.2 8 17.5 SW 15 24 8 13 1010.0 1009.3 0.0
13/04:30pm 33.4 27.2 -5.3 8 17.4 SSW 19 30 10 16 1010.5 1009.8 0.0
13/04:00pm 32.8 25.9 -5.7 8 17.1 WSW 22 32 12 17 1010.7 1010.0 0.0
13/03:30pm 32.5 26.3 -4.4 9 16.7 SSW 19 28 10 15 1011.0 1010.3 0.0
13/03:00pm 33.5 26.9 -3.7 9 17.2 S 22 33 12 18 1011.2 1010.5 0.0
13/02:30pm 32.4 26.2 -4.5 9 16.7 SW 19 28 10 15 1011.7 1011.0 0.0
13/02:00pm 32.2 26.0 -3.2 10 16.3 S 20 32 11 17 1012.1 1011.4 0.0
13/01:30pm 31.4 25.1 -3.8 10 16.0 SSW 20 32 11 17 1012.6 1011.9 0.0
13/01:00pm 31.1 25.4 -4.1 10 15.9 SW 17 28 9 15 1013.2 1012.5 0.0
13/12:30pm 30.5 24.4 -2.1 12 15.1 S 20 32 11 17 1013.6 1012.9 0.0
13/12:00pm 29.8 23.7 -2.6 12 14.8 SSW 20 32 11 17 1014.0 1013.3 0.0
13/11:30am 29.5 23.3 -2.9 12 14.7 SSW 20 30 11 16 1014.4 1013.7 0.0
13/11:00am 28.1 21.9 -2.9 13 13.9 SSW 20 28 11 15 1014.8 1014.1 0.0
13/10:30am 27.4 20.9 -2.4 14 13.4 SSW 22 28 12 15 1014.6 1013.9 0.0
13/10:00am 26.4 20.6 0.2 18 12.3 SSE 20 32 11 17 1014.6 1013.9 0.0
13/09:30am 25.8 19.8 1.2 20 11.7 SSE 22 32 12 17 1015.0 1014.4 0.0
13/09:00am 24.6 19.0 1.5 22 10.9 S 20 28 11 15 1015.2 1014.6 0.0
13/08:30am 24.4 18.7 0.7 21 11.1 SSE 20 35 11 19 1015.1 1014.5 0.0
13/08:00am 24.0 18.3 0.4 21 10.9 S 20 32 11 17 1014.7 1014.0 0.0
13/07:30am 23.3 18.4 -0.2 21 10.7 S 15 20 8 11 1014.4 1013.7 0.0
13/07:00am 22.7 17.8 -0.7 21 10.5 SSW 15 19 8 10 1014.1 1013.4 0.0
13/06:30am 22.0 17.7 -1.3 21 10.3 SW 11 15 6 8 1013.7 1013.0 0.0
13/06:00am 23.0 18.4 -1.1 20 10.7 SSW 13 20 7 11 1013.2 1012.5 0.0
13/05:30am 23.3 18.2 -1.6 19 11.0 S 15 19 8 10 1012.7 1012.0 0.0
13/05:00am 23.6 18.6 -1.3 19 11.1 S 15 20 8 11 1012.8 1012.1 0.0
13/04:30am 23.7 19.1 -1.3 19 11.2 S 13 17 7 9 1012.9 1012.2 0.0
13/04:00am 23.8 19.6 -1.2 19 11.2 SSW 11 15 6 8 1013.1 1012.4 0.0
13/03:30am 24.0 19.3 -1.8 18 11.4 SSW 13 19 7 10 1013.3 1012.6 0.0
13/03:00am 24.6 19.6 -1.3 18 11.7 SSW 15 20 8 11 1013.3 1012.6 0.0
13/02:30am 25.1 19.8 -0.9 18 11.8 SSW 17 24 9 13 1013.3 1012.6 0.0
13/02:00am 26.0 20.2 -0.1 18 12.1 SSW 20 32 11 17 1013.2 1012.5 0.0
13/01:30am 26.2 20.4 0.0 18 12.2 SSW 20 26 11 14 1013.3 1012.6 0.0
13/01:00am 26.8 21.1 0.5 18 12.4 S 20 30 11 16 1013.2 1012.5 0.0
13/12:30am 26.7 21.1 -0.3 17 12.6 S 19 24 10 13 1013.0 1012.3 0.0
13/12:00am 27.4 21.5 -0.6 16 13.0 SSW 20 28 11 15 1013.1 1012.4 0.0
 
Date/Time
EDT
Temp
°C
App
Temp
°C
Dew
Point
°C
Rel
Hum
%
Delta-T
°C
Wind Press
QNH
hPa
Press
MSL
hPa
Rain since
9am
mm
Dir  Spd
km/h
Gust
km/h
Spd
kts
Gust
kts
12/11:30pm 28.0 21.7 -1.0 15 13.5 SSW 22 32 12 17 1012.8 1012.1 0.0
12/11:00pm 28.7 22.5 -0.5 15 13.8 SSW 22 32 12 17 1013.0 1012.3 0.0
12/10:30pm 29.2 23.3 -1.0 14 14.2 SSW 20 30 11 16 1012.7 1012.0 0.0
12/10:00pm 29.6 24.2 -1.7 13 14.5 SSW 17 22 9 12 1012.4 1011.7 0.0
12/09:30pm 29.4 24.3 -1.9 13 14.5 SW 15 20 8 11 1012.3 1011.6 0.0
12/09:00pm 30.4 24.7 -1.1 13 14.9 SW 19 24 10 13 1012.1 1011.4 0.0
12/08:30pm 31.3 24.9 -1.5 12 15.5 SSW 22 32 12 17 1011.7 1011.0 0.0
12/08:00pm 32.1 26.2 -2.0 11 16.1 SW 19 28 10 15 1011.2 1010.5 0.0
12/07:30pm 32.7 26.7 -1.6 11 16.3 SW 20 32 11 17 1011.1 1010.4 0.0

Other formats

Comma delimited format used in spreadsheet applications
http://www.bom.gov.au/fwo/IDN60801/IDN60801.94703.axf

JavaScript Object Notation format (JSON) in row-major order
http://www.bom.gov.au/fwo/IDN60801/IDN60801.94703.json

Data quality

Most of these data are generated automatically and are frequently updated. Quality checks on data are not normally performed. It is possible for incorrect values to appear. Refer to information at About Latest Weather Observations and please check the disclaimer before using these data.